Share

Grand Forks, ND (58201)

Grand Forks International (KGFK) Elev 843 ft | 47.95 °N, 97.18 °W | Change Station
Active Advisory: Flood Warning Active Notice: Public Information Statement

Current weather conditions updated 45 minutes ago

Partly Cloudy
Partly Cloudy
41 °F
Feels Like 34 °F
N
12
Wind Variable Wind from NNW
Sunrise 6:35 AM
Sunset 8:21 PM
Moon Waning Gibbous

Today is forecast to be nearly the same temperature as yesterday.

Pressure 30.36 in
Visibility 10.0 miles
Clouds Few 20000 ft
Windchill 34 °F
Dew Point 11 °F
Humidity 29%
Rainfall 0.00 in
Snow Depth Not available.
UV 7 out of 16
Pollen 8.00 out of 12
Air Quality Not available.
Flu Activity Sporadic
METAR KGFK 171953Z 33010KT 10SM FEW200 05/M12 A3032 RMK AO2 SLP280 T00501117

More Conditions Fewer Conditions

Pressure 30.36 in
Visibility 10.0 miles
Clouds Few 20000 ft
Windchill 34 °F
Dew Point 11 °F
Humidity 29%
Rainfall 0.00 in
Snow Depth Not available.
UV 7 out of 16
Pollen 8.00 out of 12
Air Quality Not available.
Flu Activity Sporadic
METAR KGFK 171953Z 33010KT 10SM FEW200 05/M12 A3032 RMK AO2 SLP280 T00501117

More Conditions Fewer Conditions

10-Day Forecast

Almanac

Astronomy

Apr. 17, 2014 Rise Set
Actual Time 6:35 AM CDT 8:21 PM CDT
Civil Twilight 6:02 AM CDT 8:54 PM CDT
Nautical Twilight 5:22 AM CDT 9:34 PM CDT
Astronomical Twilight 4:38 AM CDT 10:18 PM CDT
Moon 11:17 PM CDT 8:00 AM CDT
Length of Visible Light 14h 51m
Length of Day
13h 46m
Tomorrow will be 3m 19s longer.
Waning Gibbous, 93% of the Moon is Illuminated
Today
Waning Gibbous
Apr 22
Last Quarter
Apr 29
New
May 6
First Quarter
May 14
Full

Today's Extremes

State Highs State Lows

Community

  • Morning Light
    Morning Light
  • New Day
    New Day
  • Lake Michigan Sunrise
    Lake Michigan Sunrise
  • sunset from izmir, narlıdere
    sunset from izmir, narlıdere
  • oregon cherry
    oregon cherry

WunderPhotos

Upload Photos

1,702,123 photos uploaded!

Nearby

Snow Depth

Station Depth Elevation
No new snow has been reported.

Coastal Water Temperatures

Place Temperature
No Stations Reporting

Earthquake Activity

City Distance Mag. Time & Date
No recent earthquake activity has been reported nearby.
Minimum magnitude displayed is 2.5.

Nearby Weather Stations

There are no personal weather stations in this area.

What do you think?

We're not finished. Please let us know what you like, what you don't like, and what you are still missing.